• Join FlightAware (Why Join?)
  • Login
  • US Flag 
11:10PM EDT


 

Airport Tracker/Info


-or-


 

Live Flight TrackerFlight Track Log ✈ UAL1033 ✈ 27-Mar-2014 ✈ KIAH - KSFO

Flight Track Log - Related Links

Times and Time Zones

All times are in EDT time to prevent confusion due to time zone crossing. See the UAL1033 flight status page for this flight to view local times or setup timezone preferences in your user account.

Time Position Orientation Groundspeed Altitude Reporting Facility
EDT Latitude Longitude Course Direction KTS MPH feet Rate Location/Type
10:25PM 29.9650 -95.3466 150° Southeast 171 197 400  Level FlightAware ADS-B (KHOU)
10:25PM 29.9555 -95.3407 161° South 160 184 1,300 3,300 Climbing FlightAware ADS-B (KHOU)
10:25PM 29.9513 -95.3397 175° South 161 185 1,500 2,400 Climbing FlightAware ADS-B (KHOU)
10:25PM 29.9475 -95.3401 193° South 166 191 1,700 1,980 Climbing FlightAware ADS-B (KHOU)
10:25PM 29.9438 -95.3417 208° Southwest 170 196 1,800 1,800 Climbing FlightAware ADS-B (KHOU)
10:25PM 29.9408 -95.3440 220° Southwest 177 204 2,000 1,620 Climbing FlightAware ADS-B (KHOU)
10:26PM 29.9375 -95.3475 226° Southwest 185 213 2,100 2,400 Climbing FlightAware ADS-B (KHOU)
10:26PM 29.9282 -95.3586 227° Southwest 197 227 2,800 2,400 Climbing FlightAware ADS-B (KHOU)
10:26PM 29.9184 -95.3706 227° Southwest 220 253 3,300 1,980 Climbing FlightAware ADS-B (KHOU)
10:26PM 29.9072 -95.3838 227° Southwest 234 269 3,800 1,560 Climbing FlightAware ADS-B (KHOU)
10:27PM 29.8957 -95.3977 228° Southwest 242 278 4,100 2,100 Climbing FlightAware ADS-B (KHOU)
10:27PM 29.8835 -95.4132 228° Southwest 241 277 4,900 3,060 Climbing FlightAware ADS-B
10:27PM 29.8751 -95.4243 232° Southwest 247 284 5,500 3,120 Climbing FlightAware ADS-B
10:27PM 29.8701 -95.4322 239° Southwest 252 290 5,900 3,000 Climbing FlightAware ADS-B (KHOU)
10:27PM 29.8654 -95.4448 254° West 259 298 6,400 3,180 Climbing FlightAware ADS-B (KHOU)
10:27PM 29.8641 -95.4518 263° West 263 303 6,700 3,000 Climbing FlightAware ADS-B (KHOU)
10:27PM 29.8638 -95.4583 270° West 267 307 6,900 3,300 Climbing FlightAware ADS-B (KHOU)
10:27PM 29.8643 -95.4658 279° West 269 310 7,200 3,600 Climbing FlightAware ADS-B (KHOU)
10:28PM 29.8657 -95.4730 288° West 269 310 7,500 3,600 Climbing FlightAware ADS-B (KHOU)
10:28PM 29.8719 -95.4924 291° West 269 310 8,400 3,540 Climbing FlightAware ADS-B (KHOU)
10:28PM 29.8780 -95.5107 292° West 272 313 9,100 3,060 Climbing FlightAware ADS-B
10:29PM 29.8934 -95.5542 292° West 286 329 10,700 2,160 Climbing FlightAware ADS-B (KHOU)
10:29PM 29.9091 -95.5999 292° West 327 376 11,400 1,560 Climbing FlightAware ADS-B (KHOU)
10:30PM 29.9265 -95.6513 292° West 358 412 12,300 2,400 Climbing FlightAware ADS-B (KHOU)
10:30PM 29.9447 -95.7050 292° West 365 420 13,800 3,060 Climbing FlightAware ADS-B (KHOU)
10:31PM 29.9651 -95.7652 292° West 371 427 15,500 3,000 Climbing FlightAware ADS-B
10:31PM 29.9820 -95.8157 292° West 376 433 16,900 2,820 Climbing FlightAware ADS-B
10:32PM 30.0025 -95.8767 292° West 382 440 18,400 2,760 Climbing FlightAware ADS-B
10:32PM 30.0266 -95.9479 292° West 390 449 20,000 2,460 Climbing FlightAware ADS-B (KHOU)
10:33PM 30.0463 -96.0066 292° West 396 456 21,200 2,400 Climbing FlightAware ADS-B (KHOU)
10:33PM 30.0645 -96.0677 286° West 400 460 22,500 2,400 Climbing FlightAware ADS-B (KHOU)
10:33PM 30.0690 -96.0887 283° West 403 464 22,800 960 Climbing FlightAware ADS-B (KHOU)
10:34PM 30.0801 -96.1543 281° West 425 489 23,200 1,320 Climbing FlightAware ADS-B
10:34PM 30.0909 -96.2261 280° West 431 496 24,200 3,000 Climbing FlightAware ADS-B
10:35PM 30.1009 -96.2920 280° West 409 471 26,200 3,000 Climbing FlightAware ADS-B
10:35PM 30.1108 -96.3577 280° West 418 481 27,200 1,740 Climbing FlightAware ADS-B
10:36PM 30.1280 -96.4694 280° West 427 491 28,600 1,920 Climbing FlightAware ADS-B
10:37PM 30.1381 -96.5359 280° West 421 484 29,800 2,580 Climbing FlightAware ADS-B
10:37PM 30.1507 -96.6178 280° West 409 471 31,500 2,760 Climbing FlightAware ADS-B (KHOU)
10:38PM 30.1601 -96.6808 280° West 396 456 32,900 2,400 Climbing FlightAware ADS-B (KHOU)
10:38PM 30.1694 -96.7424 280° West 392 451 33,900 2,280 Climbing FlightAware ADS-B (KHOU)
10:39PM 30.1785 -96.8026 280° West 381 438 35,200 2,460 Climbing FlightAware ADS-B (KHOU)
10:40PM 30.1920 -96.8941 280° West 363 418 37,100 2,040 Climbing FlightAware ADS-B
10:40PM 30.2011 -96.9547 280° West 360 414 37,900 720 Climbing FlightAware ADS-B
10:41PM 30.2123 -97.0299 280° West 365 420 38,000 60 Climbing FlightAware ADS-B
10:41PM 30.2152 -97.0493 280° West 366 421 38,000  Level FlightAware ADS-B
10:42PM 30.2284 -97.1393 280° West 370 426 38,000  Level FlightAware ADS-B
10:42PM 30.2389 -97.2100 280° West 374 430 38,000  Level FlightAware ADS-B (KHOU)
10:43PM 30.2476 -97.2694 280° West 376 433 38,000  Level FlightAware ADS-B (KHOU)
10:44PM 30.2545 -97.3166 280° West 378 435 38,000  Level FlightAware ADS-B
10:44PM 30.2739 -97.4479 281° West 384 442 38,000  Level FlightAware ADS-B (KHOU)
10:45PM 30.2776 -97.4686 283° West 386 444 38,000  Level FlightAware ADS-B (KHOU)
10:45PM 30.2782 -97.4716 282° West 386 444 38,000  Level FlightAware ADS-B
10:45PM 30.2798 -97.4799 282° West 385 443 38,000  Level FlightAware ADS-B (KGTU)
10:45PM 30.2930 -97.5357 287° West 389 448 38,000  Level FlightAware ADS-B
10:46PM 30.3062 -97.5865 285° West 389 448 38,000  Level FlightAware ADS-B (KHOU)
10:46PM 30.3086 -97.5969 284° West 389 448 38,000  Level FlightAware ADS-B
10:46PM 30.3203 -97.6552 284° West 388 447 38,000  Level FlightAware ADS-B
10:46PM 30.3225 -97.6652 283° West 389 448 38,000  Level FlightAware ADS-B
10:46PM 30.3268 -97.6852 283° West 386 444 38,000  Level FlightAware ADS-B (KGTU)
10:47PM 30.3369 -97.7306 285° West 386 444 38,000  Level FlightAware ADS-B
10:47PM 30.3448 -97.7648 285° West 385 443 38,000  Level FlightAware ADS-B (KGTU)
10:47PM 30.3528 -97.7990 285° West 384 442 38,000  Level FlightAware ADS-B
10:48PM 30.3589 -97.8254 285° West 384 442 38,000  Level FlightAware ADS-B (KGTU)
10:48PM 30.3666 -97.8584 285° West 383 441 38,000  Level FlightAware ADS-B (KHOU)
10:48PM 30.3675 -97.8623 285° West 384 442 38,000  Level FlightAware ADS-B
10:48PM 30.3726 -97.8850 285° West 383 441 38,000  Level FlightAware ADS-B (KGTU)
10:48PM 30.3783 -97.9093 285° West 381 438 38,000  Level FlightAware ADS-B (KHOU)
10:49PM 30.3899 -97.9602 285° West 383 441 38,000  Level FlightAware ADS-B (KGTU)
10:49PM 30.3923 -97.9705 285° West 384 442 38,000  Level FlightAware ADS-B
10:49PM 30.3915 -97.9673 285° West 382 440 38,000  Level FlightAware ADS-B (KHOU)
10:49PM 30.4051 -98.0274 285° West 382 440 38,000  Level FlightAware ADS-B (KHOU)
10:49PM 30.4077 -98.0390 285° West 382 440 38,000  Level FlightAware ADS-B
10:49PM 30.4086 -98.0431 285° West 382 440 38,000  Level FlightAware ADS-B (KGTU)
10:50PM 30.4191 -98.0904 285° West 381 438 38,000  Level FlightAware ADS-B (KHOU)
10:50PM 30.4214 -98.1006 284° West 381 438 38,000  Level FlightAware ADS-B
10:50PM 30.4258 -98.1207 284° West 381 438 38,000  Level FlightAware ADS-B (KGTU)
10:50PM 30.4326 -98.1507 285° West 381 438 38,000  Level FlightAware ADS-B (KHOU)
10:50PM 30.4352 -98.1617 284° West 381 438 38,000  Level FlightAware ADS-B
10:51PM 30.4460 -98.2112 285° West 379 436 38,000  Level FlightAware ADS-B (KHOU)
10:51PM 30.4480 -98.2204 283° West 378 435 38,000  Level FlightAware ADS-B (KGTU)
10:51PM 30.4490 -98.2241 284° West 380 437 38,000  Level FlightAware ADS-B
10:51PM 30.4609 -98.2777 283° West 378 435 38,000  Level FlightAware ADS-B (KGTU)
10:52PM 30.4724 -98.3297 285° West 380 437 38,000  Level FlightAware ADS-B (KHOU)
10:52PM 30.4739 -98.3368 283° West 379 436 38,000  Level FlightAware ADS-B (KGTU)
10:52PM 30.4828 -98.3771 285° West 382 440 38,000  Level FlightAware ADS-B (KHOU)
10:53PM 30.4932 -98.4238 285° West 382 440 38,000  Level FlightAware ADS-B (KHOU)
10:53PM 30.5121 -98.5095 285° West 381 438 38,000  Level FlightAware ADS-B (KHOU)
10:53PM 30.5143 -98.5200 284° West 382 440 38,000  Level FlightAware ADS-B
10:54PM 30.5244 -98.5656 285° West 382 440 38,000  Level FlightAware ADS-B (KHOU)
10:54PM 30.5261 -98.5737 285° West 382 440 38,000  Level FlightAware ADS-B (KHOU)
10:55PM 30.5611 -98.7333 285° West 386 444 38,000  Level FlightAware ADS-B (KHOU)
10:56PM 30.5943 -98.8856 285° West 385 443 38,000  Level FlightAware ADS-B (KHOU)
10:57PM 30.6027 -98.9240 285° West 385 443 38,000 -120 Level FlightAware ADS-B (KHOU)
10:57PM 30.6183 -98.9836 285° West 385 443 37,900  Descending Houston Center
10:58PM 30.6431 -99.1036 283° West 385 443 38,000  Climbing Houston Center
10:59PM 30.6700 -99.2239 285° West 385 443 38,000  Level Houston Center
11:01PM 30.6953 -99.3456 284° West 387 445 38,000  Level Houston Center
11:02PM 30.7256 -99.4906 284° West 387 445 38,000  Level Houston Center
11:03PM 30.7517 -99.6114 284° West 387 445 38,000  Level Houston Center
11:04PM 30.7767 -99.7333 283° West 388 447 38,000  Level Houston Center
11:05PM 30.8017 -99.8553 283° West 389 448 38,000  Level Houston Center
11:06PM 30.8269 -99.9764 284° West 389 448 38,000 -60 Level Houston Center
11:07PM 30.8517 -100.0986 283° West 389 448 37,900  Descending Houston Center
11:08PM 30.8761 -100.2192 283° West 389 448 38,000  Climbing Houston Center
11:09PM 30.9006 -100.3394 283° West 387 445 38,000  Level Houston Center
11:10PM 30.9297 -100.4825 283° West 383 441 38,000  Level Houston Center
11:11PM 30.9542 -100.6019 283° West 383 441 38,000  Level Houston Center
11:12PM 30.9786 -100.7211 283° West 382 440 38,000  Level Houston Center
11:13PM 31.0014 -100.8425 282° West 382 440 38,000  Level Houston Center
11:14PM 31.0267 -100.9625 284° West 382 440 38,000  Level Houston Center
11:15PM 31.0500 -101.0867 282° West 386 444 38,000  Level Houston Center
11:16PM 31.0733 -101.2094 283° West 386 444 38,000  Level Houston Center
11:17PM 31.0978 -101.3331 283° West 390 449 38,000  Level Houston Center
11:18PM 31.1197 -101.4572 282° West 390 449 38,000 -60 Level Houston Center
11:19PM 31.1506 -101.6053 284° West 390 449 37,900  Descending Houston Center
11:20PM 31.1739 -101.7308 282° West 391 450 38,000  Climbing Houston Center
11:21PM 31.1969 -101.8547 282° West 391 450 38,000  Level Houston Center
11:22PM 31.2208 -101.9783 283° West 391 450 38,000  Level Houston Center
11:23PM 31.2447 -102.1019 283° West 391 450 38,000  Level Houston Center
11:24PM 31.2597 -102.1867 282° West 393 452 38,000  Level Albuquerque Center
11:25PM 31.2822 -102.3106 282° West 392 451 38,000  Level Albuquerque Center
11:26PM 31.3044 -102.4339 282° West 391 450 38,000  Level Albuquerque Center
11:27PM 31.3281 -102.5614 282° West 391 450 38,000  Level Albuquerque Center
11:28PM 31.3550 -102.7092 282° West 391 450 38,000  Level Albuquerque Center
11:29PM 31.3769 -102.8331 282° West 391 450 38,000 -60 Level Albuquerque Center
11:30PM 31.3981 -102.9567 281° West 391 450 37,900  Descending Albuquerque Center
11:31PM 31.4217 -103.0811 283° West 391 450 38,000  Climbing Albuquerque Center
11:32PM 31.4444 -103.2058 282° West 391 450 38,000 360 Level Albuquerque Center
11:33PM 31.4661 -103.3303 282° West 391 450 38,800 900 Climbing Albuquerque Center
11:34PM 31.4872 -103.4550 281° West 391 450 39,900 540 Climbing Albuquerque Center
11:35PM 31.5078 -103.5708 282° West 373 429 40,000  Climbing Albuquerque Center
11:36PM 31.5336 -103.7156 282° West 375 432 39,900 -60 Descending Albuquerque Center
11:37PM 31.5547 -103.8269 283° West 380 437 39,900  Level Albuquerque Center
11:38PM 31.5744 -103.9467 281° West 379 436 40,000  Climbing Albuquerque Center
11:39PM 31.5953 -104.0658 282° West 379 436 39,900 -60 Descending Albuquerque Center
11:40PM 31.6144 -104.1858 281° West 379 436 39,900  Level Albuquerque Center
11:41PM 31.6400 -104.3314 282° West 379 436 40,000  Climbing Albuquerque Center
11:42PM 31.6603 -104.4533 281° West 379 436 40,000  Level Albuquerque Center
11:43PM 31.6814 -104.5725 282° West 379 436 40,000  Level Albuquerque Center
11:44PM 31.7014 -104.6947 281° West 379 436 40,000  Level Albuquerque Center
11:45PM 31.7214 -104.8181 281° West 381 438 40,000 -60 Level Albuquerque Center
11:46PM 31.7419 -104.9425 281° West 386 444 39,900 -60 Descending Albuquerque Center
11:47PM 31.7625 -105.0656 281° West 387 445 39,900  Level Albuquerque Center
11:48PM 31.7869 -105.2111 281° West 385 443 40,000  Climbing Albuquerque Center
11:49PM 31.8061 -105.3336 280° West 385 443 40,000 -60 Level Albuquerque Center
11:50PM 31.8250 -105.4564 280° West 384 442 39,900  Descending Albuquerque Center
11:51PM 31.8439 -105.5772 280° West 380 437 40,000  Climbing Albuquerque Center
11:52PM 31.8625 -105.6975 280° West 379 436 40,000  Level Albuquerque Center
11:53PM 31.8817 -105.8181 281° West 379 436 40,000  Level Albuquerque Center
11:54PM 31.9014 -105.9486 280° West 378 435 40,000 -60 Level Albuquerque Center
11:55PM 31.9211 -106.0714 281° West 379 436 39,900  Descending Albuquerque Center
11:57PM 31.9400 -106.1950 280° West 381 438 40,000  Climbing Albuquerque Center
11:58PM 31.9633 -106.3194 282° West 388 447 40,000 -60 Level Albuquerque Center
11:59PM 31.9956 -106.4397 288° West 388 447 39,900 -60 Descending Albuquerque Center
12:00AM 32.0342 -106.5861 287° West 388 447 39,900  Level Albuquerque Center
12:01AM 32.0653 -106.7086 287° West 389 448 39,900  Level Albuquerque Center
12:02AM 32.0969 -106.8308 287° West 389 448 40,000  Climbing Albuquerque Center
12:03AM 32.1289 -106.9556 287° West 393 452 40,000  Level Albuquerque Center
12:04AM 32.1592 -107.0789 286° West 393 452 40,000  Level Albuquerque Center
12:05AM 32.1886 -107.1953 287° West 388 447 40,000  Level Albuquerque Center
12:06AM 32.2172 -107.3217 285° West 395 455 40,000  Level Albuquerque Center
12:07AM 32.2472 -107.4456 286° West 395 455 40,000  Level Albuquerque Center
12:08AM 32.2817 -107.5756 287° West 392 451 40,000  Level Albuquerque Center
12:09AM 32.3117 -107.7006 286° West 392 451 40,000  Level Albuquerque Center
12:10AM 32.3419 -107.8247 286° West 392 451 40,000  Level Albuquerque Center
12:15AM 32.5113 -108.5406 286° West 400 460 40,000  Level FlightAware ADS-B (KDMA)
12:16AM 32.5282 -108.6116 286° West 400 460 40,000  Level FlightAware ADS-B (KDMA)
12:17AM 32.5521 -108.7122 286° West 400 460 40,000  Level FlightAware ADS-B (KDMA)
12:17AM 32.5713 -108.7929 286° West 399 459 40,000  Level FlightAware ADS-B (KDMA)
12:18AM 32.5830 -108.8422 286° West 398 458 40,000  Level FlightAware ADS-B (EPLB / LUZ)
12:19AM 32.5830 -108.8422 286° West 398 458 40,000  Level FlightAware ADS-B (EPLB / LUZ)
12:20AM 32.6530 -109.1399 286° West 393 452 40,000  Level FlightAware ADS-B (KDMA)
12:21AM 32.6892 -109.2951 285° West 392 451 40,000  Level FlightAware ADS-B (KDMA)
12:22AM 32.7038 -109.3578 285° West 390 449 40,000  Level FlightAware ADS-B (EPLB / LUZ)
12:22AM 32.7206 -109.4306 285° West 390 449 40,000  Level FlightAware ADS-B (EPLB / LUZ)
12:23AM 32.7471 -109.5454 285° West 389 448 40,000  Level FlightAware ADS-B (KDMA)
12:24AM 32.7627 -109.6131 285° West 388 447 40,000  Level FlightAware ADS-B (EPLB / LUZ)
12:24AM 32.7730 -109.6579 285° West 386 444 40,000  Level FlightAware ADS-B (EPLB / LUZ)
12:25AM 32.7911 -109.7365 285° West 389 448 40,000  Level FlightAware ADS-B (KDMA)
12:26AM 32.8035 -109.7913 285° West 389 448 40,000  Level FlightAware ADS-B (KDMA)
12:27AM 32.8377 -109.9413 285° West 390 449 40,000  Level FlightAware ADS-B (KDMA)
12:28AM 32.8676 -110.0733 285° West 390 449 40,000  Level FlightAware ADS-B (KDMA)
12:28AM 32.8808 -110.1315 285° West 390 449 40,000  Level FlightAware ADS-B (KDMA)
12:29AM 32.8981 -110.2086 285° West 388 447 40,000  Level FlightAware ADS-B (EPLB / LUZ)
12:29AM 32.9168 -110.2916 285° West 388 447 40,000  Level FlightAware ADS-B (KDMA)
12:30AM 32.9313 -110.3567 285° West 393 452 40,000  Level FlightAware ADS-B (KDMA)
12:31AM 32.9523 -110.4505 285° West 398 458 40,000  Level FlightAware ADS-B (KDMA)
12:31AM 32.9712 -110.5352 285° West 400 460 40,000  Level FlightAware ADS-B (KDMA)
12:32AM 32.9806 -110.5778 285° West 400 460 40,000  Level FlightAware ADS-B (KDMA)
12:33AM 33.0054 -110.6899 285° West 402 463 40,000  Level FlightAware ADS-B (KDMA)
12:33AM 33.0250 -110.7794 285° West 402 463 40,000  Level FlightAware ADS-B (KDMA)
12:34AM 33.0419 -110.8565 285° West 401 461 40,000  Level FlightAware ADS-B (KDMA)
12:35AM 33.0640 -110.9574 285° West 400 460 40,000  Level FlightAware ADS-B (KDMA)
12:35AM 33.0791 -111.0271 285° West 399 459 40,000  Level FlightAware ADS-B (KDMA)
12:36AM 33.0931 -111.0918 284° West 398 458 40,000  Level FlightAware ADS-B (KDMA)
12:36AM 33.1165 -111.1992 284° West 395 455 40,000  Level FlightAware ADS-B (KDMA)
12:37AM 33.1304 -111.2639 284° West 396 456 40,000  Level FlightAware ADS-B (KDMA)
12:38AM 33.1345 -111.2833 284° West 396 456 40,000  Level FlightAware ADS-B (EPLB / LUZ)
12:38AM 33.1664 -111.4325 284° West 396 456 40,000  Level FlightAware ADS-B (KDMA)
12:40AM 33.2150 -111.6604 284° West 397 457 40,000  Level FlightAware ADS-B (KPAN)
12:41AM 33.2309 -111.7362 284° West 394 453 40,000  Level FlightAware ADS-B (KDMA)
12:42AM 33.2646 -111.8970 284° West 393 452 40,000  Level FlightAware ADS-B (KDMA)
12:43AM 33.2808 -111.9739 284° West 395 455 40,000  Level FlightAware ADS-B (KDMA)
12:43AM 33.2998 -112.0661 284° West 394 453 40,000  Level FlightAware ADS-B (KDMA)
12:44AM 33.3261 -112.1930 284° West 395 455 40,000  Level FlightAware ADS-B (KDMA)
12:47AM 33.3885 -112.4980 284° West 395 455 40,000  Level FlightAware ADS-B (KDMA)
12:48AM 33.4191 -112.6485 282° West 388 447 40,000  Level FlightAware ADS-B (KDMA)
12:50AM 33.4645 -112.8757 282° West 388 447 40,000 -60 Level FlightAware ADS-B (KDMA)
12:51AM 33.4775 -112.9475 282° West 391 450 39,900  Descending Albuquerque Center
12:52AM 33.5069 -113.0997 283° West 391 450 40,000  Climbing Albuquerque Center
12:53AM 33.5311 -113.2275 283° West 392 451 40,000  Level Albuquerque Center
12:54AM 33.5553 -113.3578 283° West 396 456 40,000  Level Albuquerque Center
12:55AM 33.5800 -113.4872 283° West 398 458 40,000  Level Albuquerque Center
12:56AM 33.6044 -113.6175 283° West 399 459 40,000  Level Albuquerque Center
12:57AM 33.6303 -113.7517 283° West 400 460 40,000  Level Albuquerque Center
12:58AM 33.6711 -113.8761 292° West 400 460 40,000  Level Albuquerque Center
12:59AM 33.7147 -113.9986 293° West 400 460 40,000  Level Albuquerque Center
01:00AM 33.7592 -114.1200 294° West 399 459 40,000 -60 Level Albuquerque Center
01:01AM 33.8000 -114.2367 293° West 399 459 39,900  Descending Albuquerque Center
01:02AM 33.8433 -114.3564 294° West 396 456 40,000  Climbing Albuquerque Center
01:03AM 33.8867 -114.4753 294° West 395 455 40,000  Level Albuquerque Center
01:04AM 33.9283 -114.5953 293° West 392 451 40,000  Level Albuquerque Center
01:05AM 33.9906 -114.7728 293° West 387 445 40,000  Level Los Angeles Center
01:11AM 34.2380 -115.5028 292° West 379 436 40,000  Level FlightAware ADS-B
01:12AM 34.2520 -115.5444 292° West 379 436 40,000  Level FlightAware ADS-B
01:12AM 34.2806 -115.6294 292° West 379 436 40,000  Level FlightAware ADS-B (KBNG)
01:13AM 34.3031 -115.6964 292° West 380 437 40,000  Level FlightAware ADS-B
01:13AM 34.3227 -115.7556 292° West 378 435 40,000  Level FlightAware ADS-B (KBNG)
01:14AM 34.3425 -115.8148 292° West 378 435 40,000  Level FlightAware ADS-B
01:14AM 34.3666 -115.8869 292° West 378 435 40,000  Level FlightAware ADS-B
01:15AM 34.3891 -115.9546 292° West 378 435 40,000  Level FlightAware ADS-B (KBNG)
01:16AM 34.4236 -116.0583 292° West 379 436 40,000  Level FlightAware ADS-B (KBNG)
01:17AM 34.4581 -116.1628 292° West 379 436 40,000  Level FlightAware ADS-B (KBNG)
01:17AM 34.4782 -116.2237 292° West 378 435 40,000  Level FlightAware ADS-B (KBNG)
01:18AM 34.4967 -116.2800 292° West 379 436 40,000  Level FlightAware ADS-B (KBNG)
01:18AM 34.5226 -116.3593 292° West 378 435 40,000  Level FlightAware ADS-B (KBNG)
01:19AM 34.5557 -116.4601 292° West 379 436 40,000  Level FlightAware ADS-B (KBNG)
01:20AM 34.5743 -116.5173 291° West 378 435 40,000  Level FlightAware ADS-B (KBNG)
01:21AM 34.6029 -116.6048 291° West 380 437 40,000  Level FlightAware ADS-B (KBNG)
01:21AM 34.6324 -116.6955 292° West 377 434 40,000  Level FlightAware ADS-B (KBNG)
01:22AM 34.6588 -116.7771 291° West 379 436 40,000  Level FlightAware ADS-B (KBNG)
01:22AM 34.6789 -116.8389 291° West 378 435 40,000  Level FlightAware ADS-B
01:23AM 34.7074 -116.9278 291° West 380 437 40,000  Level FlightAware ADS-B
01:24AM 34.7472 -117.0515 291° West 383 441 40,000  Level FlightAware ADS-B
01:25AM 34.7801 -117.1540 291° West 387 445 40,000  Level FlightAware ADS-B
01:26AM 34.8037 -117.2279 291° West 387 445 40,000  Level FlightAware ADS-B
01:27AM 34.8343 -117.3234 291° West 389 448 40,000  Level FlightAware ADS-B
01:28AM 34.8747 -117.4431 291° West 387 445 40,000  Level Los Angeles Center
01:29AM 34.9142 -117.5686 291° West 388 447 40,000  Level Los Angeles Center
01:30AM 34.9558 -117.6981 291° West 389 448 40,000 -240 Level Los Angeles Center
01:31AM 34.9936 -117.8194 291° West 389 448 39,600 -840 Descending Los Angeles Center
01:32AM 35.0322 -117.9400 291° West 384 442 38,300 -840 Descending Los Angeles Center
01:33AM 35.0775 -118.0853 291° West 382 440 38,000 -180 Descending Los Angeles Center
01:34AM 35.1156 -118.2050 291° West 381 438 38,000  Level Los Angeles Center
01:35AM 35.1517 -118.3250 290° West 378 435 38,000  Level Los Angeles Center
01:36AM 35.1889 -118.4461 291° West 383 441 38,000  Level Los Angeles Center
01:37AM 35.2275 -118.5719 291° West 387 445 38,000 -60 Level Los Angeles Center
01:38AM 35.2650 -118.6969 290° West 390 449 37,900  Descending Los Angeles Center
01:39AM 35.3042 -118.8225 291° West 394 453 38,000  Climbing Los Angeles Center
01:40AM 35.3422 -118.9478 290° West 396 456 38,000  Level Los Angeles Center
01:41AM 35.3797 -119.0736 290° West 396 456 38,000  Level Los Angeles Center
01:42AM 35.4125 -119.2011 288° West 396 456 38,000  Level Los Angeles Center
01:43AM 35.4433 -119.3292 286° West 396 456 38,000  Level Los Angeles Center
01:44AM 35.4800 -119.4819 286° West 394 453 38,000  Level Los Angeles Center
01:45AM 35.5106 -119.6089 287° West 391 450 38,000  Level Los Angeles Center
01:46AM 35.5397 -119.7350 286° West 389 448 38,000  Level Los Angeles Center
01:47AM 35.5708 -119.8617 287° West 389 448 38,000  Level Los Angeles Center
01:48AM 35.5997 -119.9886 286° West 389 448 38,000  Level Los Angeles Center
01:49AM 35.6300 -120.1153 286° West 389 448 38,000  Level Los Angeles Center
01:50AM 35.6536 -120.2158 286° West 391 450 38,000  Level Oakland Center
01:51AM 35.6836 -120.3406 287° West 389 448 38,000  Level Oakland Center
01:52AM 35.7353 -120.4536 299° West 388 447 38,000 -420 Level Oakland Center
01:58AM 36.1341 -121.0430 310° West 396 456 35,200 -600 Descending FlightAware ADS-B
01:58AM 36.1914 -121.1280 310° West 398 458 34,200 -1,560 Descending FlightAware ADS-B
02:01AM 36.4188 -121.4360 325° Northwest 407 468 29,200 -1,620 Descending FlightAware ADS-B
02:02AM 36.4682 -121.4780 326° Northwest 404 465 28,500 -1,860 Descending FlightAware ADS-B
02:02AM 36.5154 -121.5180 326° Northwest 409 471 27,300 -2,400 Descending FlightAware ADS-B
02:03AM 36.5633 -121.5580 326° Northwest 410 472 26,100 -2,340 Descending FlightAware ADS-B
02:03AM 36.6136 -121.6010 326° Northwest 401 461 24,900 -2,520 Descending FlightAware ADS-B
02:04AM 36.6596 -121.6400 326° Northwest 394 453 23,500 -3,000 Descending FlightAware ADS-B
02:04AM 36.7065 -121.6790 326° Northwest 389 448 21,900 -3,000 Descending FlightAware ADS-B
02:05AM 36.7542 -121.7200 325° Northwest 385 443 20,300 -2,040 Descending FlightAware ADS-B
02:05AM 36.7558 -121.7209 325° Northwest 384 442 20,200 -2,880 Descending FlightAware ADS-B
02:08AM 37.0251 -121.9510 326° Northwest 355 409 11,200 -3,000 Descending FlightAware ADS-B
02:09AM 37.0669 -121.9870 326° Northwest 345 397 10,100 -1,680 Descending FlightAware ADS-B
02:09AM 37.0872 -122.0040 325° Northwest 328 377 9,900 -600 Descending FlightAware ADS-B
02:09AM 37.1061 -122.0200 325° Northwest 311 358 9,800 -240 Descending FlightAware ADS-B
02:10AM 37.1232 -122.0350 325° Northwest 301 346 9,800  Level FlightAware ADS-B
02:10AM 37.1455 -122.0540 325° Northwest 274 315 9,800  Level FlightAware ADS-B
02:10AM 37.1594 -122.0660 326° Northwest 271 312 9,800  Level FlightAware ADS-B
02:10AM 37.1650 -122.0710 329° Northwest 271 312 9,800 -540 Level FlightAware ADS-B
02:10AM 37.1727 -122.0760 334° Northwest 270 311 9,700 -1,080 Descending FlightAware ADS-B
02:10AM 37.1844 -122.0810 341° North 270 311 9,500 -1,080 Descending FlightAware ADS-B
02:11AM 37.1926 -122.0840 346° North 270 311 9,400 -1,440 Descending FlightAware ADS-B
02:11AM 37.2153 -122.0900 348° North 272 313 8,900 -1,800 Descending FlightAware ADS-B
02:11AM 37.2351 -122.0950 349° North 272 313 8,400 -1,740 Descending FlightAware ADS-B
02:11AM 37.2545 -122.1000 348° North 274 315 8,000 -1,560 Descending FlightAware ADS-B
02:12AM 37.2730 -122.1050 348° North 275 316 7,600 -1,380 Descending FlightAware ADS-B
02:12AM 37.2934 -122.1100 348° North 275 316 7,300 -1,380 Descending FlightAware ADS-B
02:12AM 37.3122 -122.1150 348° North 272 313 6,900 -1,920 Descending FlightAware ADS-B
02:12AM 37.3072 -122.1140 348° North 267 307 6,700 -1,020 Descending FlightAware ADS-B (KHWD)
02:12AM 37.3332 -122.1210 348° North 262 302 6,600 -840 Descending FlightAware ADS-B
02:13AM 37.3519 -122.1260 348° North 253 291 6,300 -1,380 Descending FlightAware ADS-B
02:13AM 37.3692 -122.1300 348° North 242 278 5,900 -1,320 Descending FlightAware ADS-B
02:13AM 37.3778 -122.1330 348° North 236 272 5,800 -1,200 Descending FlightAware ADS-B
02:13AM 37.3741 -122.1319 348° North 238 274 5,700 -780 Descending FlightAware ADS-B (KHWD)
02:13AM 37.3945 -122.1370 348° North 232 267 5,600 -660 Descending FlightAware ADS-B
02:13AM 37.3918 -122.1364 348° North 232 267 5,500 -1,080 Descending FlightAware ADS-B (KHWD)
02:14AM 37.4118 -122.1420 348° North 230 265 5,300 -1,080 Descending FlightAware ADS-B
02:14AM 37.4158 -122.1428 348° North 229 264 5,200 -600 Descending FlightAware ADS-B (KHWD)
02:14AM 37.4225 -122.1450 349° North 229 264 5,200 -720 Level FlightAware ADS-B
02:14AM 37.4267 -122.1450 354° North 229 264 5,100 -900 Descending FlightAware ADS-B
02:14AM 37.4302 -122.1460 358° North 230 265 5,100 -900 Level FlightAware ADS-B
02:14AM 37.4342 -122.1450 North 230 265 5,000 -900 Descending FlightAware ADS-B
02:14AM 37.4373 -122.1450 North 229 264 5,000 -720 Level FlightAware ADS-B
02:14AM 37.4534 -122.1430 North 227 261 4,800 -1,200 Descending FlightAware ADS-B
02:14AM 37.4637 -122.1415 North 227 261 4,500 -1,500 Descending FlightAware ADS-B (KHWD)
02:15AM 37.4696 -122.1410 North 228 262 4,400 -1,200 Descending FlightAware ADS-B
02:15AM 37.4800 -122.1389 North 226 260 4,100 -1,200 Descending FlightAware ADS-B (KHWD)
02:15AM 37.4854 -122.1380 North 224 258 4,100 -1,140 Level FlightAware ADS-B
02:15AM 37.5008 -122.1360 North 220 253 3,800 -1,200 Descending FlightAware ADS-B
02:16AM 37.5312 -122.1372 333° Northwest 211 243 3,200 -960 Descending FlightAware ADS-B (KHWD)
02:16AM 37.5395 -122.1490 304° West 208 239 3,100 -360 Descending FlightAware ADS-B
02:16AM 37.5403 -122.1530 283° West 203 234 3,100  Level FlightAware ADS-B
02:16AM 37.5408 -122.1580 275° West 200 230 3,100  Level FlightAware ADS-B
02:16AM 37.5412 -122.1660 274° West 195 224 3,100  Level FlightAware ADS-B
02:16AM 37.5417 -122.1710 279° West 195 224 3,100  Level FlightAware ADS-B
02:16AM 37.5425 -122.1770 283° West 195 224 3,100  Level FlightAware ADS-B
02:16AM 37.5440 -122.1840 287° West 193 222 3,100 -600 Level FlightAware ADS-B
02:16AM 37.5453 -122.1880 292° West 193 222 3,000 -1,200 Descending FlightAware ADS-B
02:17AM 37.5474 -122.1940 298° West 195 224 2,900 -1,500 Descending FlightAware ADS-B
02:17AM 37.5502 -122.1997 299° West 198 228 2,700 -1,440 Descending FlightAware ADS-B (KHWD)
02:17AM 37.5532 -122.2070 300° West 198 228 2,600 -900 Descending FlightAware ADS-B
02:17AM 37.5596 -122.2210 298° West 193 222 2,400 -900 Descending FlightAware ADS-B
02:17AM 37.5625 -122.2280 297° West 191 220 2,300 -1,140 Descending FlightAware ADS-B
02:17AM 37.5686 -122.2430 297° West 188 216 2,000 -1,020 Descending FlightAware ADS-B
02:17AM 37.5719 -122.2510 296° West 185 213 1,900 -960 Descending FlightAware ADS-B
02:18AM 37.5757 -122.2610 297° West 185 213 1,700 -1,620 Descending FlightAware ADS-B
02:18AM 37.5776 -122.2658 297° West 183 211 1,500 -1,500 Descending FlightAware ADS-B (KHWD)
02:18AM 37.5806 -122.2730 298° West 180 207 1,400 -1,200 Descending FlightAware ADS-B
02:18AM 37.5853 -122.2840 298° West 176 203 1,100 -660 Descending FlightAware ADS-B
02:18AM 37.5908 -122.2970 298° West 153 176 1,100 -540 Level FlightAware ADS-B
02:18AM 37.5936 -122.3030 298° West 145 167 900 -1,260 Descending FlightAware ADS-B
02:19AM 37.5984 -122.3150 297° West 140 161 600 -840 Descending FlightAware ADS-B
02:19AM 37.6022 -122.3240 298° West 132 152 500 -600 Descending FlightAware ADS-B
02:19AM 37.6046 -122.3300 298° West 129 148 400 -600 Descending FlightAware ADS-B
02:19AM 37.6076 -122.3370 298° West 127 146 300 -780 Descending FlightAware ADS-B
02:19AM 37.6111 -122.3450 299° West 127 146 100 -120 Descending FlightAware ADS-B
02:20AM 37.6192 -122.3703 299° West 153 176 200 120 Climbing Oakland Center